Darstellungsparameter: Aktuell verwendete Einstellungen:
Skalierung der Graphiken ... ?
xyx+y,   Skalierungsfaktor:      Skalierung: Modus: x, Faktor: 1
Darstellungszeitraum ... ?
Vom - - bis: - -   Zeitraum: 01.12.2014 - 06.12.2014
Min/Max/Avg-Anzeige ... ?
Zeige MMA aktuell
Zeige MMA Monat
Zeige MMA alles
Zeige --A aktuell
Zeige --A Monat
Zeige --A alles
Keine MMA-Anzeige
MMA:
Keine MMA-Graphiken
MMA-Basis: 01.12.2014 - 06.12.2014
Quicknavigation für Darstellung... ?
Tage:      1T, 2T, 3T, 5T -1T -2T -3T -5T +1T +2T +3T +5T
Wochen: 1W, 2W, 3W -1W -2W -3W +1W +2W +3W
Monate: 1M, 3M, 6M -1M -3M -6M +1M +3M +6M
Jahre:    1J, 3J, 5J, 10J -1J -3J -5J -10J +1J +3J +5J +10J
Nutze für die Darstellung ... ?
Originaldaten oder ...
Mittelwerte Minima Maxima auf...
Stundenbasis Tagesbasis Wochenbasis
Monatsbasis Jahresbasis      Datenbasis: Mittelwerte auf Stundenbasis
Darstellen als:
Statistik (Auto) Statistik J:M      Darstellung:
Zur Graphik,    zurück zur Übersicht aller Sensoren.
 
Tabellarische Datenbersicht: ?
 
Sensor: Nr:Datum:Temp:Abs-Feuchte:Windchill:Wind:
Aussen-T/F 1 01-12-2014 00:00:00 3.375 C 5.73 g/m*3 3.38 C 3.75 km/h
2 01-12-2014 01:00:00 3.3 C 5.73 g/m*3 3.3 C 3.2 km/h
3 01-12-2014 02:00:00 3.3 C 5.76 g/m*3 3.3 C 0.4 km/h
4 01-12-2014 03:00:00 3.39167 C 5.8 g/m*3 3.39 C 1.46667 km/h
5 01-12-2014 04:00:00 3.63333 C 5.88 g/m*3 3.63 C 2.4 km/h
6 01-12-2014 05:00:00 3.83333 C 5.91 g/m*3 3.83 C 1.06667 km/h
7 01-12-2014 06:00:00 4.13333 C 5.95 g/m*3 4.13 C 4.675 km/h
8 01-12-2014 07:00:00 4.175 C 5.92 g/m*3 2.42 C 7.11667 km/h
9 01-12-2014 08:00:00 3.98333 C 5.82 g/m*3 2.55 C 6.025 km/h
10 01-12-2014 09:00:00 3.73333 C 5.68 g/m*3 0.76 C 11.83333 km/h
11 01-12-2014 10:00:00 3.78333 C 5.64 g/m*3 1.31 C 9.55 km/h
12 01-12-2014 11:00:00 3.86667 C 5.62 g/m*3 0.97 C 11.56667 km/h
13 01-12-2014 12:00:00 3.8 C 5.59 g/m*3 1.17 C 10.225 km/h
14 01-12-2014 13:00:00 3.825 C 5.66 g/m*3 3.83 C 3.875 km/h
15 01-12-2014 14:00:00 3.68333 C 5.62 g/m*3 1.98 C 6.69167 km/h
16 01-12-2014 15:00:00 3.36667 C 5.48 g/m*3 1.39 C 7.39167 km/h
17 01-12-2014 16:00:00 3.2 C 5.37 g/m*3 1.95 C 5.23333 km/h
18 01-12-2014 17:00:00 3 C 5.29 g/m*3 1 C 7.25833 km/h
19 01-12-2014 18:00:00 2.73333 C 5.21 g/m*3 2.73 C 3.06667 km/h
20 01-12-2014 19:00:00 2.65833 C 5.22 g/m*3 2.66 C 2.53333 km/h
21 01-12-2014 20:00:00 2.59167 C 5.21 g/m*3 2.59 C 1.2 km/h
22 01-12-2014 21:00:00 2.4 C 5.12 g/m*3 2.4 C 2.26667 km/h
23 01-12-2014 22:00:00 2.2 C 5.02 g/m*3 2.2 C 2 km/h
24 01-12-2014 23:00:00 2.025 C 4.96 g/m*3 2.03 C 4.69167 km/h
25 02-12-2014 00:00:00 1.825 C 4.94 g/m*3 1.83 C 1.86667 km/h
Sensor: Nr:Datum:Temp:Abs-Feuchte:Windchill:Wind:
Aussen-T/F 26 02-12-2014 01:00:00 1.75833 C 4.98 g/m*3 1.76 C 0.13333 km/h
27 02-12-2014 02:00:00 1.7 C 5.01 g/m*3 1.7 C 0.8 km/h
28 02-12-2014 03:00:00 1.65833 C 5.06 g/m*3 1.66 C 3.2 km/h
29 02-12-2014 04:00:00 1.5 C 5.03 g/m*3 1.5 C 3.73333 km/h
30 02-12-2014 05:00:00 1.34167 C 4.97 g/m*3 1.34 C 1.2 km/h
31 02-12-2014 06:00:00 1.2 C 4.98 g/m*3 1.2 C 0.4 km/h
32 02-12-2014 07:00:00 1.21667 C 4.99 g/m*3 1.22 C 1.06667 km/h
33 02-12-2014 08:00:00 1.2 C 4.95 g/m*3 1.2 C 0 km/h
34 02-12-2014 09:00:00 1.28333 C 4.95 g/m*3 1.28 C 0.8 km/h
35 02-12-2014 10:00:00 1.56667 C 4.96 g/m*3 1.57 C 2.13333 km/h
36 02-12-2014 11:00:00 1.94167 C 4.93 g/m*3 1.94 C 4.26667 km/h
37 02-12-2014 12:00:00 2.025 C 4.86 g/m*3 2.03 C 3.73333 km/h
38 02-12-2014 13:00:00 2.14167 C 4.83 g/m*3 0.43 C 6.01667 km/h
39 02-12-2014 14:00:00 2.1 C 4.79 g/m*3 0.48 C 5.76667 km/h
40 02-12-2014 15:00:00 2.2 C 4.84 g/m*3 2.2 C 2.4 km/h
41 02-12-2014 16:00:00 2.2 C 4.84 g/m*3 2.2 C 1.2 km/h
42 02-12-2014 17:00:00 2.2 C 4.84 g/m*3 2.2 C 0 km/h
43 02-12-2014 18:00:00 2 C 4.9 g/m*3 2 C 0.6 km/h
44 02-12-2014 19:00:00 1.9 C 4.97 g/m*3 1.9 C 0 km/h
45 02-12-2014 20:00:00 1.41667 C 4.95 g/m*3 1.42 C 0.26667 km/h
46 02-12-2014 21:00:00 1.225 C 4.98 g/m*3 1.23 C 0 km/h
47 02-12-2014 22:00:00 1.13333 C 5.01 g/m*3 1.13 C 0 km/h
48 02-12-2014 23:00:00 1.21667 C 5.08 g/m*3 1.22 C 0.13333 km/h
49 03-12-2014 00:00:00 1.275 C 5.13 g/m*3 1.27 C 0.4 km/h
50 03-12-2014 01:00:00 1.33333 C 5.13 g/m*3 1.33 C 0.26667 km/h
Sensor: Nr:Datum:Temp:Abs-Feuchte:Windchill:Wind:
Aussen-T/F 51 03-12-2014 02:00:00 1.425 C 5.13 g/m*3 1.43 C 0 km/h
52 03-12-2014 03:00:00 1.56667 C 5.22 g/m*3 1.57 C 0 km/h
53 03-12-2014 04:00:00 1.475 C 5.19 g/m*3 1.48 C 0 km/h
54 03-12-2014 05:00:00 1.725 C 5.29 g/m*3 1.73 C 0 km/h
55 03-12-2014 06:00:00 1.8 C 5.32 g/m*3 1.8 C 0 km/h
56 03-12-2014 07:00:00 1.96667 C 5.38 g/m*3 1.97 C 0 km/h
57 03-12-2014 08:00:00 2.01667 C 5.4 g/m*3 2.02 C 0 km/h
58 03-12-2014 09:00:00 1.84167 C 5.33 g/m*3 1.84 C 0.13333 km/h
59 03-12-2014 10:00:00 2 C 5.38 g/m*3 2 C 0.66667 km/h
60 03-12-2014 11:00:00 2.22857 C 5.42 g/m*3 2.23 C 3.65714 km/h
61 03-12-2014 12:00:00 2.5375 C 5.35 g/m*3 2.54 C 0.8 km/h
62 03-12-2014 16:00:00 2.1 C 5.1 g/m*3 2.1 C 1.01818 km/h
63 03-12-2014 17:00:00 1.94 C 5.07 g/m*3 1.94 C 0.64 km/h
64 03-12-2014 18:00:00 1.85556 C 4.91 g/m*3 1.86 C 1.42222 km/h
65 03-12-2014 19:00:00 1.725 C 4.87 g/m*3 1.73 C 1.46667 km/h
66 03-12-2014 20:00:00 1.7 C 4.79 g/m*3 1.7 C 3.06667 km/h
67 03-12-2014 21:00:00 1.575 C 4.84 g/m*3 1.58 C 0.13333 km/h
68 03-12-2014 22:00:00 1.54167 C 4.85 g/m*3 1.54 C 0.13333 km/h
69 03-12-2014 23:00:00 1.575 C 4.82 g/m*3 1.58 C 1.33333 km/h
70 04-12-2014 00:00:00 1.6 C 4.85 g/m*3 1.6 C 0 km/h
71 04-12-2014 01:00:00 1.6 C 4.88 g/m*3 1.6 C 0.4 km/h
72 04-12-2014 02:00:00 1.6 C 4.87 g/m*3 1.6 C 0 km/h
73 04-12-2014 03:00:00 1.6 C 4.88 g/m*3 1.6 C 0.13333 km/h
74 04-12-2014 04:00:00 1.6 C 4.9 g/m*3 1.6 C 0.53333 km/h
75 04-12-2014 05:00:00 1.6 C 4.93 g/m*3 1.6 C 0.13333 km/h
Sensor: Nr:Datum:Temp:Abs-Feuchte:Windchill:Wind:
Aussen-T/F 76 04-12-2014 06:00:00 1.6 C 4.98 g/m*3 1.6 C 0.13333 km/h
77 04-12-2014 07:00:00 1.6 C 5.03 g/m*3 1.6 C 0 km/h
78 04-12-2014 08:00:00 1.6 C 5.08 g/m*3 1.6 C 0 km/h
79 04-12-2014 09:00:00 1.70833 C 5.18 g/m*3 1.71 C 0.13333 km/h
80 04-12-2014 10:00:00 2.025 C 5.26 g/m*3 2.03 C 3.46667 km/h
81 04-12-2014 11:00:00 2.275 C 5.26 g/m*3 2.28 C 1.06667 km/h
82 04-12-2014 12:00:00 2.63333 C 5.34 g/m*3 2.63 C 1.6 km/h
83 04-12-2014 13:00:00 2.90833 C 5.43 g/m*3 2.91 C 0.8 km/h
84 04-12-2014 14:00:00 3.16667 C 5.51 g/m*3 3.17 C 1.6 km/h
85 04-12-2014 15:00:00 3.2 C 5.54 g/m*3 3.2 C 2.26667 km/h
86 04-12-2014 16:00:00 3.08333 C 5.55 g/m*3 3.08 C 0.53333 km/h
87 04-12-2014 17:00:00 2.91667 C 5.55 g/m*3 2.92 C 0 km/h
88 04-12-2014 18:00:00 2.8 C 5.55 g/m*3 2.8 C 0 km/h
89 04-12-2014 19:00:00 2.84167 C 5.59 g/m*3 2.84 C 0 km/h
90 04-12-2014 20:00:00 2.975 C 5.59 g/m*3 2.98 C 0.53333 km/h
91 04-12-2014 21:00:00 3.1 C 5.63 g/m*3 3.1 C 0 km/h
92 04-12-2014 22:00:00 2.925 C 5.59 g/m*3 2.93 C 0 km/h
93 04-12-2014 23:00:00 2.94167 C 5.6 g/m*3 2.94 C 0.53333 km/h
94 05-12-2014 00:00:00 2.94167 C 5.63 g/m*3 2.94 C 0 km/h
95 05-12-2014 01:00:00 3.15 C 5.71 g/m*3 3.15 C 0.26667 km/h
96 05-12-2014 02:00:00 3.24167 C 5.74 g/m*3 3.24 C 0 km/h
97 05-12-2014 03:00:00 3.3 C 5.69 g/m*3 3.3 C 1.86667 km/h
98 05-12-2014 04:00:00 3.2 C 5.6 g/m*3 3.2 C 1.86667 km/h
99 05-12-2014 05:00:00 3.11667 C 5.57 g/m*3 3.12 C 0.93333 km/h
100 05-12-2014 06:00:00 3.1 C 5.59 g/m*3 3.1 C 0.13333 km/h
Sensor: Nr:Datum:Temp:Abs-Feuchte:Windchill:Wind:
Aussen-T/F 101 05-12-2014 07:00:00 3.15833 C 5.65 g/m*3 3.16 C 0.26667 km/h
102 05-12-2014 08:00:00 3.20833 C 5.67 g/m*3 3.21 C 0 km/h
103 05-12-2014 09:00:00 3.50833 C 5.75 g/m*3 3.51 C 0.13333 km/h
104 05-12-2014 10:00:00 4.11667 C 5.86 g/m*3 4.12 C 3.46667 km/h
105 05-12-2014 11:00:00 4.51667 C 5.97 g/m*3 4.52 C 1.73333 km/h
106 05-12-2014 12:00:00 4.85 C 6.06 g/m*3 4.85 C 4.26667 km/h
107 05-12-2014 13:00:00 5.08333 C 6.14 g/m*3 5.08 C 4.93333 km/h
108 05-12-2014 14:00:00 5.33333 C 6.23 g/m*3 5.33 C 2.26667 km/h
109 05-12-2014 15:00:00 5.375 C 6.25 g/m*3 5.38 C 0.13333 km/h
110 05-12-2014 16:00:00 5.10833 C 6.27 g/m*3 5.11 C 0 km/h
111 05-12-2014 17:00:00 4.81667 C 6.24 g/m*3 4.82 C 0 km/h
112 05-12-2014 18:00:00 4.74167 C 6.26 g/m*3 4.74 C 0 km/h
113 05-12-2014 19:00:00 4.70833 C 6.27 g/m*3 4.71 C 0.4 km/h
114 05-12-2014 20:00:00 4.8 C 6.3 g/m*3 4.8 C 0.8 km/h
115 05-12-2014 21:00:00 4.8 C 6.27 g/m*3 4.8 C 0.93333 km/h
116 05-12-2014 22:00:00 4.75 C 6.24 g/m*3 4.75 C 0.26667 km/h
117 05-12-2014 23:00:00 4.74167 C 6.11 g/m*3 4.74 C 1.73333 km/h
118 06-12-2014 00:00:00 3.93333 C 5.84 g/m*3 3.93 C 1.06667 km/h
119 06-12-2014 01:00:00 2.78333 C 5.57 g/m*3 2.78 C 1.33333 km/h
120 06-12-2014 02:00:00 3.13333 C 5.76 g/m*3 3.13 C 0 km/h
121 06-12-2014 03:00:00 3.46667 C 5.85 g/m*3 3.47 C 2.26667 km/h
122 06-12-2014 04:00:00 3.61667 C 5.89 g/m*3 3.62 C 2 km/h
123 06-12-2014 05:00:00 3.71667 C 5.93 g/m*3 3.72 C 1.73333 km/h
124 06-12-2014 06:00:00 3.80833 C 5.91 g/m*3 3.81 C 1.73333 km/h
125 06-12-2014 07:00:00 3.9 C 5.94 g/m*3 3.9 C 0.66667 km/h
Sensor: Nr:Datum:Temp:Abs-Feuchte:Windchill:Wind:
Aussen-T/F 126 06-12-2014 08:00:00 4.04167 C 6.04 g/m*3 4.04 C 1.6 km/h
127 06-12-2014 09:00:00 4.19167 C 6.12 g/m*3 4.19 C 2.4 km/h
128 06-12-2014 10:00:00 4.35 C 6.2 g/m*3 4.35 C 1.33333 km/h
129 06-12-2014 11:00:00 4.60833 C 6.29 g/m*3 4.61 C 1.33333 km/h
130 06-12-2014 12:00:00 4.80833 C 6.42 g/m*3 4.81 C 0.53333 km/h
131 06-12-2014 13:00:00 5.125 C 6.57 g/m*3 5.13 C 0.13333 km/h
132 06-12-2014 14:00:00 5.35 C 6.61 g/m*3 5.35 C 0.8 km/h
133 06-12-2014 15:00:00 5.4 C 6.63 g/m*3 5.4 C 0 km/h
134 06-12-2014 16:00:00 5.4 C 6.63 g/m*3 5.4 C 0.13333 km/h
135 06-12-2014 17:00:00 5.275 C 6.59 g/m*3 5.28 C 0 km/h
136 06-12-2014 18:00:00 5.33333 C 6.67 g/m*3 5.33 C 0.13333 km/h
137 06-12-2014 19:00:00 5.4 C 6.7 g/m*3 5.4 C 0.26667 km/h
138 06-12-2014 20:00:00 5.36667 C 6.63 g/m*3 5.37 C 2.13333 km/h
139 06-12-2014 21:00:00 5.30833 C 6.54 g/m*3 5.31 C 2 km/h
140 06-12-2014 22:00:00 5.10833 C 6.5 g/m*3 5.11 C 0.93333 km/h
141 06-12-2014 23:00:00 4.90833 C 6.42 g/m*3 4.91 C 0 km/h

Maximal/Minimal-Werte vom 01.12.2014 - 06.12.2014

Sensor Min Max Avg
Temp
(Aussen-T/F)
1.1 °C
02-12-2014  21:50:00
5.4 °C
05-12-2014  14:40:00
3.01 °C
Abs-Feuchte
(Aussen-T/F)
4.79 g/m*3
02-12-2014  14:00:00
6.7 g/m*3
06-12-2014  19:00:00
5.49 g/m*3
Windchill
(Aussen-T/F)
0.43 C
02-12-2014  13:00:00
5.4 C
06-12-2014  15:00:00
2.79 C

Die Daten stammen von einer Davis Vantage Pro 2 Wetter-Station und werden unter Linux mit der Software wview2wettercgi und aufbereitet. Alle Angaben erfolgen ohne Gewähr für ihre Vollständigkeit oder Richtigkeit.
Kontakt: Rainer Krienke krienke@uni-koblenz.de . Meine Webseiten an der Uni Koblenz oder privat.
Version: $Revision: 0.78 $